Time;durP1;ratioP1;P1;durP2;ratioP2;P2;SDS_P1;SDS_P2;PMS_P1;PMS_P2;Temp;Humidity;BMP_temperature;BMP_pressure;BME280_temperature;BME280_humidity;BME280_pressure;Samples;Min_cycle;Max_cycle;Signal;HPM_P1;HPM_P2
2023/01/03 00:01:59;;;;;;;;;;;;;;;8.07;82.69;101862.75;7360022;19;19926;-67
2023/01/03 00:04:26;;;;;;;;;;;;;;;8.10;82.55;101849.41;7359195;19;19923;-67
2023/01/03 00:06:53;;;;;;;;;;;;;;;8.14;82.28;101852.63;7354647;19;19964;-69
2023/01/03 00:09:22;;;;;;;;;;;;;;;8.16;81.80;101841.09;7359999;19;20418;-68
2023/01/03 00:14:28;;;;;;;;;;;;;;;8.24;81.55;101829.19;7356588;19;20700;-68
2023/01/03 00:16:56;;;;;;;;;;;;;;;8.23;80.98;101830.19;7360486;19;20366;-67
2023/01/03 00:19:24;;;;;;;;;;;;;;;8.21;80.73;101819.78;7358003;19;19923;-68
2023/01/03 00:21:51;;;;;;;;;;;;;;;8.23;80.80;101822.31;7354294;19;19926;-67
2023/01/03 00:24:18;;;;;;;;;;;;;;;8.21;81.16;101819.78;7357083;19;20972;-67
2023/01/03 00:26:45;;;;;;;;;;;;;;;8.19;81.66;101811.19;7359304;19;19935;-67
2023/01/03 00:29:13;;;;;;;;;;;;;;;8.18;81.26;101821.81;7357898;19;19923;-67
2023/01/03 00:31:40;;;;;;;;;;;;;;;8.17;81.42;101823.59;7358545;19;19983;-67
2023/01/03 00:34:07;;;;;;;;;;;;;;;8.18;81.17;101823.47;7359124;19;19939;-68
2023/01/03 00:36:35;;;;;;;;;;;;;;;8.21;81.24;101826.81;7355203;19;19919;-68
2023/01/03 00:39:02;;;;;;;;;;;;;;;8.22;81.04;101831.13;7356100;19;19923;-68
2023/01/03 00:41:29;;;;;;;;;;;;;;;8.22;80.82;101826.72;7356768;19;19911;-67
2023/01/03 00:43:56;;;;;;;;;;;;;;;8.27;81.40;101821.97;7357826;19;20025;-67
2023/01/03 00:46:23;;;;;;;;;;;;;;;8.29;81.85;101827.91;7356562;19;20440;-68
2023/01/03 00:48:50;;;;;;;;;;;;;;;8.31;80.80;101822.59;7359063;19;19927;-67
2023/01/03 00:51:19;;;;;;;;;;;;;;;8.37;81.23;101807.25;7355651;19;20519;-69
2023/01/03 00:53:47;;;;;;;;;;;;;;;8.39;80.95;101813.22;7355144;19;19927;-68
2023/01/03 00:56:15;;;;;;;;;;;;;;;8.42;80.56;101801.66;7357707;19;20608;-68
2023/01/03 00:58:42;;;;;;;;;;;;;;;8.47;81.39;101799.53;7356676;19;19927;-68
2023/01/03 01:01:10;;;;;;;;;;;;;;;8.48;81.02;101794.16;7354893;19;19943;-68
2023/01/03 01:03:52;;;;;;;;;;;;;;;8.47;80.29;101791.66;7357181;19;19940;-68
2023/01/03 01:06:21;;;;;;;;;;;;;;;8.51;80.95;101800.97;7352355;19;19918;-68
2023/01/03 01:08:48;;;;;;;;;;;;;;;8.53;80.74;101786.78;7353960;19;19919;-67
2023/01/03 01:11:16;;;;;;;;;;;;;;;8.56;80.67;101785.72;7356439;19;19931;-67
2023/01/03 01:13:44;;;;;;;;;;;;;;;8.61;81.48;101793.25;7356915;19;19949;-68
2023/01/03 01:16:12;;;;;;;;;;;;;;;8.63;81.17;101797.44;7355237;19;20002;-67
2023/01/03 01:18:40;;;;;;;;;;;;;;;8.63;80.50;101794.81;7355351;19;19926;-67
2023/01/03 01:21:08;;;;;;;;;;;;;;;8.65;80.69;101805.16;7353117;19;19945;-68
2023/01/03 01:23:37;;;;;;;;;;;;;;;8.65;80.58;101805.16;7354014;19;19914;-67
2023/01/03 01:26:04;;;;;;;;;;;;;;;8.65;80.62;101806.00;7354944;19;20206;-69
2023/01/03 01:28:31;;;;;;;;;;;;;;;8.67;81.30;101805.91;7353648;19;19925;-67
2023/01/03 01:30:59;;;;;;;;;;;;;;;8.68;81.30;101792.69;7354960;19;20558;-67
2023/01/03 01:33:26;;;;;;;;;;;;;;;8.68;81.04;101800.56;7352787;19;20530;-67
2023/01/03 01:35:53;;;;;;;;;;;;;;;8.70;82.41;101793.38;7354027;19;19939;-68
2023/01/03 01:38:20;;;;;;;;;;;;;;;8.70;81.90;101787.28;7355826;19;19922;-65
2023/01/03 01:40:47;;;;;;;;;;;;;;;8.71;81.38;101787.19;7354487;19;20261;-67
2023/01/03 01:45:53;;;;;;;;;;;;;;;8.69;81.68;101780.38;7356978;19;21323;-67
2023/01/03 01:48:21;;;;;;;;;;;;;;;8.69;82.03;101783.84;7355755;19;19927;-68
2023/01/03 01:50:50;;;;;;;;;;;;;;;8.67;81.79;101777.88;7353987;19;19922;-68
2023/01/03 01:53:18;;;;;;;;;;;;;;;8.68;82.58;101782.19;7354746;19;20889;-68
2023/01/03 01:55:48;;;;;;;;;;;;;;;8.67;82.44;101771.78;7357321;19;19947;-67
2023/01/03 01:58:15;;;;;;;;;;;;;;;8.66;82.54;101770.13;7355252;19;19915;-67
2023/01/03 02:00:43;;;;;;;;;;;;;;;8.67;83.33;101772.63;7355201;19;19949;-67
2023/01/03 02:03:10;;;;;;;;;;;;;;;8.67;83.38;101771.78;7356291;19;19935;-68
2023/01/03 02:05:40;;;;;;;;;;;;;;;8.66;83.67;101773.59;7351297;19;20406;-67
2023/01/03 02:08:07;;;;;;;;;;;;;;;8.66;83.65;101780.63;7355824;19;20552;-68
2023/01/03 02:10:37;;;;;;;;;;;;;;;8.65;83.64;101784.19;7355232;19;20447;-68
2023/01/03 02:13:11;;;;;;;;;;;;;;;8.66;84.29;101791.94;7353895;19;20275;-67
2023/01/03 02:15:47;;;;;;;;;;;;;;;8.65;84.93;101777.16;7353248;19;20011;-67
2023/01/03 02:18:24;;;;;;;;;;;;;;;8.66;84.88;101778.84;7354092;19;19922;-67
2023/01/03 02:21:00;;;;;;;;;;;;;;;8.67;85.58;101783.13;7354094;19;19963;-68
2023/01/03 02:23:27;;;;;;;;;;;;;;;8.69;85.63;101778.59;7351867;19;20408;-67
2023/01/03 02:26:03;;;;;;;;;;;;;;;8.68;85.71;101779.56;7351956;19;19915;-67
2023/01/03 02:28:39;;;;;;;;;;;;;;;8.71;85.92;101781.09;7353533;19;20006;-68
2023/01/03 02:31:11;;;;;;;;;;;;;;;8.72;86.26;101778.38;7352132;19;19923;-67
2023/01/03 02:33:44;;;;;;;;;;;;;;;8.73;86.75;101776.59;7352279;19;19953;-68
2023/01/03 02:36:12;;;;;;;;;;;;;;;8.75;87.07;101782.53;7351228;19;19923;-68
2023/01/03 02:38:48;;;;;;;;;;;;;;;8.75;87.39;101772.03;7352433;19;20361;-67
2023/01/03 02:41:22;;;;;;;;;;;;;;;8.75;87.66;101772.03;7353157;19;20778;-68
2023/01/03 02:43:54;;;;;;;;;;;;;;;8.76;87.90;101766.69;7354865;19;19919;-68
2023/01/03 02:46:22;;;;;;;;;;;;;;;8.79;88.80;101766.44;7351924;19;19918;-67
2023/01/03 02:48:56;;;;;;;;;;;;;;;8.82;88.29;101766.22;7355196;19;19923;-66
2023/01/03 02:51:27;;;;;;;;;;;;;;;8.84;87.95;101766.06;7351852;19;20214;-67
2023/01/03 02:53:56;;;;;;;;;;;;;;;8.85;88.61;101758.09;7354482;19;19931;-68
2023/01/03 02:56:26;;;;;;;;;;;;;;;8.88;88.64;101759.66;7350392;19;19939;-66
2023/01/03 02:58:55;;;;;;;;;;;;;;;8.89;88.68;101756.06;7356084;19;19919;-67
2023/01/03 03:01:23;;;;;;;;;;;;;;;8.89;89.20;101749.03;7355760;19;19914;-67
2023/01/03 03:03:51;;;;;;;;;;;;;;;8.90;89.51;101755.94;7352026;19;19943;-67
2023/01/03 03:06:22;;;;;;;;;;;;;;;8.90;89.64;101750.69;7351926;19;19935;-68
2023/01/03 03:08:49;;;;;;;;;;;;;;;8.92;89.79;101750.59;7352863;19;20521;-67
2023/01/03 03:13:57;;;;;;;;;;;;;;;8.92;90.13;101746.19;7352625;19;20472;-67
2023/01/03 03:19:12;;;;;;;;;;;;;;;8.91;90.32;101735.78;7352619;19;19926;-67
2023/01/03 03:26:55;;;;;;;;;;;;;;;8.88;90.99;101729.00;7351492;19;20284;-67
2023/01/03 03:29:24;;;;;;;;;;;;;;;8.86;91.54;101719.56;7352598;19;20126;-67
2023/01/03 03:31:53;;;;;;;;;;;;;;;8.83;91.63;101727.69;7352459;19;20487;-67
2023/01/03 03:34:23;;;;;;;;;;;;;;;8.79;91.92;101713.13;7351211;19;19923;-67
2023/01/03 03:36:59;;;;;;;;;;;;;;;8.78;92.58;101717.56;7347886;19;20361;-67
2023/01/03 03:47:31;;;;;;;;;;;;;;;8.74;94.05;101728.38;7353375;19;20868;-67
2023/01/03 03:50:01;;;;;;;;;;;;;;;8.73;94.44;101726.75;7354767;19;20394;-69
2023/01/03 03:52:30;;;;;;;;;;;;;;;8.71;94.40;101720.75;7355041;19;20274;-68
2023/01/03 03:55:02;;;;;;;;;;;;;;;8.70;95.09;101727.78;7355248;19;20015;-68
2023/01/03 03:57:32;;;;;;;;;;;;;;;8.70;95.14;101719.91;7360727;19;20106;-67
2023/01/03 04:00:05;;;;;;;;;;;;;;;8.68;95.70;101716.59;7359515;19;20027;-68
2023/01/03 04:02:34;;;;;;;;;;;;;;;8.66;95.54;101715.88;7358844;19;19915;-68
2023/01/03 04:05:04;;;;;;;;;;;;;;;8.67;96.14;101716.72;7355672;19;20621;-67
2023/01/03 04:07:31;;;;;;;;;;;;;;;8.65;96.59;101716.81;7357609;19;20264;-67
2023/01/03 04:09:58;;;;;;;;;;;;;;;8.62;96.58;101717.06;7359607;19;19986;-67
2023/01/03 04:12:25;;;;;;;;;;;;;;;8.60;96.46;101708.47;7358208;19;19979;-68
2023/01/03 04:14:52;;;;;;;;;;;;;;;8.59;96.75;101709.41;7359740;19;19938;-67
2023/01/03 04:17:19;;;;;;;;;;;;;;;8.60;96.99;101705.84;7357796;19;20381;-68
2023/01/03 04:19:46;;;;;;;;;;;;;;;8.60;97.17;101697.97;7359465;19;19922;-67
2023/01/03 04:22:13;;;;;;;;;;;;;;;8.60;97.08;101700.59;7354620;19;19911;-68
2023/01/03 04:24:40;;;;;;;;;;;;;;;8.58;97.14;101700.72;7357018;19;21725;-66
2023/01/03 04:27:06;;;;;;;;;;;;;;;8.58;97.43;101695.47;7358910;19;19975;-67
2023/01/03 04:29:33;;;;;;;;;;;;;;;8.61;97.44;101707.53;7356349;19;19937;-67
2023/01/03 04:32:05;;;;;;;;;;;;;;;8.61;97.76;101706.69;7356367;19;19919;-67
2023/01/03 04:34:32;;;;;;;;;;;;;;;8.61;97.52;101702.28;7356599;19;19929;-67
2023/01/03 04:36:59;;;;;;;;;;;;;;;8.62;97.83;101705.75;7353487;19;19933;-67
2023/01/03 04:39:26;;;;;;;;;;;;;;;8.60;97.77;101697.97;7359022;19;20300;-67
2023/01/03 04:41:52;;;;;;;;;;;;;;;8.59;97.78;101697.13;7355970;19;20048;-68
2023/01/03 04:44:19;;;;;;;;;;;;;;;8.59;98.04;101705.00;7360158;19;20293;-67
2023/01/03 04:46:46;;;;;;;;;;;;;;;8.59;97.84;101701.56;7357879;19;19918;-67
2023/01/03 04:49:19;;;;;;;;;;;;;;;8.58;98.17;101702.53;7356981;19;19935;-68
2023/01/03 04:51:46;;;;;;;;;;;;;;;8.56;98.35;101710.50;7352162;19;19986;-67
2023/01/03 04:54:13;;;;;;;;;;;;;;;8.56;98.30;101707.88;7355903;19;20356;-67
2023/01/03 04:56:40;;;;;;;;;;;;;;;8.56;98.56;101704.41;7359518;19;20533;-67
2023/01/03 04:59:06;;;;;;;;;;;;;;;8.55;98.49;101700.97;7359179;19;19926;-67
2023/01/03 05:01:33;;;;;;;;;;;;;;;8.56;98.42;101701.78;7355528;19;19919;-67
2023/01/03 05:04:01;;;;;;;;;;;;;;;8.57;98.68;101701.69;7356245;19;19962;-68
2023/01/03 05:06:28;;;;;;;;;;;;;;;8.56;99.06;101693.94;7352547;19;19923;-67
2023/01/03 05:08:55;;;;;;;;;;;;;;;8.57;98.84;101698.22;7357694;19;19953;-68
2023/01/03 05:11:22;;;;;;;;;;;;;;;8.61;98.90;101694.41;7357829;19;19930;-68
2023/01/03 05:13:49;;;;;;;;;;;;;;;8.63;98.94;101692.50;7358034;19;19926;-67
2023/01/03 05:16:16;;;;;;;;;;;;;;;8.65;99.23;101695.00;7357102;19;19994;-67
2023/01/03 05:18:43;;;;;;;;;;;;;;;8.67;99.08;101687.84;7357873;19;20371;-67
2023/01/03 05:26:26;;;;;;;;;;;;;;;8.63;99.15;101691.69;7354835;19;20010;-68
2023/01/03 05:28:54;;;;;;;;;;;;;;;8.63;99.08;101695.13;7357624;19;19975;-68
2023/01/03 05:31:20;;;;;;;;;;;;;;;8.65;99.38;101697.63;7353632;19;20466;-68
2023/01/03 05:33:48;;;;;;;;;;;;;;;8.67;99.51;101693.09;7352892;19;20300;-70
2023/01/03 05:36:15;;;;;;;;;;;;;;;8.67;99.70;101685.22;7354597;19;20010;-67
2023/01/03 05:38:42;;;;;;;;;;;;;;;8.68;99.71;101692.16;7355901;19;19930;-67
2023/01/03 05:41:11;;;;;;;;;;;;;;;8.68;99.66;101690.38;7355060;19;20047;-67
2023/01/03 05:43:38;;;;;;;;;;;;;;;8.69;99.90;101699.88;7356618;19;19966;-66
2023/01/03 05:46:05;;;;;;;;;;;;;;;8.71;99.59;101698.00;7354978;19;19953;-68
2023/01/03 05:48:32;;;;;;;;;;;;;;;8.73;99.88;101701.34;7355974;19;19950;-69
2023/01/03 05:50:59;;;;;;;;;;;;;;;8.74;99.87;101699.53;7352552;19;20127;-67
2023/01/03 05:53:26;;;;;;;;;;;;;;;8.75;99.90;101693.31;7354314;19;19990;-68
2023/01/03 05:55:53;;;;;;;;;;;;;;;8.75;99.89;101695.94;7354454;19;20363;-68
2023/01/03 05:58:20;;;;;;;;;;;;;;;8.75;99.65;101698.56;7356580;19;19953;-67
2023/01/03 06:00:47;;;;;;;;;;;;;;;8.77;99.82;101697.53;7356604;19;20400;-67
2023/01/03 06:03:13;;;;;;;;;;;;;;;8.79;100.00;101689.50;7355010;19;20227;-67
2023/01/03 06:05:40;;;;;;;;;;;;;;;8.80;100.00;101696.44;7352132;19;19915;-67
2023/01/03 06:08:15;;;;;;;;;;;;;;;8.81;100.00;101693.69;7353863;19;19922;-67
2023/01/03 06:10:42;;;;;;;;;;;;;;;8.82;100.00;101691.91;7355861;19;19919;-67
2023/01/03 06:13:09;;;;;;;;;;;;;;;8.83;100.00;101688.34;7351908;19;19926;-68
2023/01/03 06:15:36;;;;;;;;;;;;;;;8.83;100.00;101694.41;7353730;19;19926;-68
2023/01/03 06:18:03;;;;;;;;;;;;;;;8.86;100.00;101693.31;7357540;19;19970;-68
2023/01/03 06:20:30;;;;;;;;;;;;;;;8.88;100.00;101691.44;7352899;19;19994;-67
2023/01/03 06:22:57;;;;;;;;;;;;;;;8.89;100.00;101678.16;7352362;19;19919;-67
2023/01/03 06:25:24;;;;;;;;;;;;;;;8.90;100.00;101681.63;7351847;19;19930;-68
2023/01/03 06:27:51;;;;;;;;;;;;;;;8.91;100.00;101678.06;7353352;19;20360;-67
2023/01/03 06:30:18;;;;;;;;;;;;;;;8.92;100.00;101691.06;7354091;19;19980;-67
2023/01/03 06:32:45;;;;;;;;;;;;;;;8.94;100.00;101686.50;7356874;19;20226;-68
2023/01/03 06:35:12;;;;;;;;;;;;;;;8.95;100.00;101692.59;7349405;19;19951;-67
2023/01/03 06:37:38;;;;;;;;;;;;;;;8.95;100.00;101696.06;7353759;19;20010;-68
2023/01/03 06:40:06;;;;;;;;;;;;;;;8.96;100.00;101689.03;7352062;19;19923;-68
2023/01/03 06:55:37;;;;;;;;;;;;;;;8.99;100.00;101686.97;7352315;19;19915;-67
2023/01/03 06:58:03;;;;;;;;;;;;;;;8.98;100.00;101682.72;7354661;19;19931;-68
2023/01/03 07:00:30;;;;;;;;;;;;;;;8.97;100.00;101683.66;7354209;19;20039;-68
2023/01/03 07:02:57;;;;;;;;;;;;;;;8.95;100.00;101680.31;7352950;19;20584;-67
2023/01/03 07:05:26;;;;;;;;;;;;;;;8.92;100.00;101672.69;7349561;19;19927;-67
2023/01/03 07:07:53;;;;;;;;;;;;;;;8.91;100.00;101673.66;7353009;19;19923;-69
2023/01/03 07:10:20;;;;;;;;;;;;;;;8.92;100.00;101682.34;7353621;19;20655;-68
2023/01/03 07:15:23;;;;;;;;;;;;;;;8.94;100.00;101677.81;7351804;19;20054;-68
2023/01/03 07:17:50;;;;;;;;;;;;;;;8.93;100.00;101684.03;7352743;19;19988;-66
2023/01/03 07:20:17;;;;;;;;;;;;;;;8.93;100.00;101684.88;7354948;19;19945;-68
2023/01/03 07:22:44;;;;;;;;;;;;;;;8.92;100.00;101688.44;7354965;19;20313;-67
2023/01/03 07:25:11;;;;;;;;;;;;;;;8.94;100.00;101690.94;7359659;19;20368;-67
2023/01/03 07:27:38;;;;;;;;;;;;;;;8.98;100.00;101677.47;7362982;19;20270;-67
2023/01/03 07:30:05;;;;;;;;;;;;;;;9.03;100.00;101671.84;7361640;19;20076;-68
2023/01/03 07:32:32;;;;;;;;;;;;;;;9.05;100.00;101672.53;7360381;19;19930;-68
2023/01/03 07:34:59;;;;;;;;;;;;;;;9.10;100.00;101665.13;7359560;19;19929;-68
2023/01/03 07:37:26;;;;;;;;;;;;;;;9.14;100.00;101671.00;7354039;19;19960;-67
2023/01/03 07:39:53;;;;;;;;;;;;;;;9.17;100.00;101670.75;7360897;19;19922;-68
2023/01/03 07:44:57;;;;;;;;;;;;;;;9.25;100.00;101671.78;7360874;19;20333;-67
2023/01/03 07:47:24;;;;;;;;;;;;;;;9.30;100.00;101676.66;7358510;19;19942;-67
2023/01/03 07:49:51;;;;;;;;;;;;;;;9.32;100.00;101667.72;7361371;19;19922;-67
2023/01/03 07:52:18;;;;;;;;;;;;;;;9.38;100.00;101661.13;7355916;19;20197;-68
2023/01/03 07:54:45;;;;;;;;;;;;;;;9.39;100.00;101663.66;7358658;19;20285;-67
2023/01/03 07:57:13;;;;;;;;;;;;;;;9.42;100.00;101670.44;7361990;19;19923;-68
2023/01/03 07:59:40;;;;;;;;;;;;;;;9.45;100.00;101667.53;7357958;19;20311;-69
2023/01/03 08:02:07;;;;;;;;;;;;;;;9.48;100.00;101672.56;7361058;19;19927;-68
2023/01/03 08:04:34;;;;;;;;;;;;;;;9.53;100.00;101662.53;7359315;19;20030;-67
2023/01/03 08:07:01;;;;;;;;;;;;;;;9.58;100.00;101672.66;7352954;19;21230;-67
2023/01/03 08:14:43;;;;;;;;;;;;;;;9.74;100.00;101662.56;7358357;19;19994;-67
2023/01/03 08:17:10;;;;;;;;;;;;;;;9.81;100.00;101663.69;7358982;19;20323;-68
2023/01/03 08:19:37;;;;;;;;;;;;;;;9.86;100.00;101664.97;7358940;19;19962;-67
2023/01/03 08:22:11;;;;;;;;;;;;;;;9.94;100.00;101664.34;7358928;19;19946;-68
2023/01/03 08:24:37;;;;;;;;;;;;;;;10.00;100.00;101669.13;7358495;19;19994;-67
2023/01/03 08:27:04;;;;;;;;;;;;;;;10.05;100.00;101666.94;7357260;19;20192;-67
2023/01/03 08:29:31;;;;;;;;;;;;;;;10.11;100.00;101658.50;7357533;19;19923;-67
2023/01/03 08:32:01;;;;;;;;;;;;;;;10.17;100.00;101657.19;7358571;19;19922;-68
2023/01/03 08:34:30;;;;;;;;;;;;;;;10.20;100.00;101652.53;7356851;19;19939;-68
2023/01/03 08:37:00;;;;;;;;;;;;;;;10.26;100.00;101657.25;7355190;19;20447;-67
2023/01/03 08:39:31;;;;;;;;;;;;;;;10.32;100.00;101662.94;7357532;19;19991;-68
2023/01/03 08:42:01;;;;;;;;;;;;;;;10.33;100.00;101662.81;7358309;19;19957;-68
2023/01/03 08:44:28;;;;;;;;;;;;;;;10.40;100.00;101665.78;7360165;19;19922;-66
2023/01/03 08:46:56;;;;;;;;;;;;;;;10.45;100.00;101666.22;7355264;19;19926;-68
2023/01/03 08:49:24;;;;;;;;;;;;;;;10.52;100.00;101667.34;7357142;19;19919;-67
2023/01/03 08:51:50;;;;;;;;;;;;;;;10.55;100.00;101657.41;7355903;19;19995;-67
2023/01/03 08:54:17;;;;;;;;;;;;;;;10.61;100.00;101650.78;7358539;19;20353;-69
2023/01/03 08:56:44;;;;;;;;;;;;;;;10.72;100.00;101654.13;7356828;19;20341;-67
2023/01/03 08:59:11;;;;;;;;;;;;;;;10.85;100.00;101651.28;7359069;19;20451;-68
2023/01/03 09:01:39;;;;;;;;;;;;;;;10.97;100.00;101649.38;7356793;19;19926;-68
2023/01/03 09:04:06;;;;;;;;;;;;;;;11.08;100.00;101652.69;7356371;19;19931;-68
2023/01/03 09:06:33;;;;;;;;;;;;;;;11.12;100.00;101648.03;7353952;19;19918;-67
2023/01/03 09:09:07;;;;;;;;;;;;;;;11.11;100.00;101647.19;7358893;19;19986;-68
2023/01/03 09:11:34;;;;;;;;;;;;;;;11.12;99.45;101645.38;7356627;19;19921;-68
2023/01/03 09:14:02;;;;;;;;;;;;;;;11.12;98.94;101648.81;7360272;19;19919;-67
2023/01/03 09:16:29;;;;;;;;;;;;;;;11.13;98.15;101652.28;7359561;19;19922;-68
2023/01/03 09:18:56;;;;;;;;;;;;;;;11.14;97.88;101652.16;7359428;19;19990;-68
2023/01/03 09:21:23;;;;;;;;;;;;;;;11.14;97.97;101644.25;7358138;19;20056;-68
2023/01/03 09:23:50;;;;;;;;;;;;;;;11.15;97.79;101653.84;7355107;19;19934;-68
2023/01/03 09:26:17;;;;;;;;;;;;;;;11.17;97.71;101648.44;7353759;19;19928;-67
2023/01/03 09:28:44;;;;;;;;;;;;;;;11.15;97.55;101638.03;7357951;19;20520;-68
2023/01/03 09:31:11;;;;;;;;;;;;;;;11.19;97.64;101646.50;7356792;19;19930;-70
2023/01/03 09:33:38;;;;;;;;;;;;;;;11.20;97.60;101639.41;7357742;19;20412;-67
2023/01/03 09:36:05;;;;;;;;;;;;;;;11.23;97.55;101644.41;7354066;19;20043;-68
2023/01/03 09:38:33;;;;;;;;;;;;;;;11.24;97.38;101646.91;7356216;19;20378;-68
2023/01/03 09:41:01;;;;;;;;;;;;;;;11.27;97.17;101649.28;7356951;19;20638;-69
2023/01/03 09:43:32;;;;;;;;;;;;;;;11.27;96.83;101649.28;7358693;19;19986;-67
2023/01/03 09:46:00;;;;;;;;;;;;;;;11.30;96.71;101638.47;7357423;19;20498;-68
2023/01/03 09:48:36;;;;;;;;;;;;;;;11.34;97.01;101636.38;7352649;19;19922;-67
2023/01/03 10:03:42;;;;;;;;;;;;;;;11.34;96.64;101642.47;7353082;19;19926;-67
2023/01/03 10:04:40;;;;;;;;;;;;;;;11.35;96.44;101622.25;7355915;19;20010;-68
2023/01/03 10:07:18;;;;;;;;;;;;;;;11.36;96.88;101634.44;7353307;19;19938;-67
2023/01/03 10:09:45;;;;;;;;;;;;;;;11.39;97.50;101631.53;7354063;19;19926;-68
2023/01/03 10:12:15;;;;;;;;;;;;;;;11.40;97.55;101634.03;7355618;19;20593;-67
2023/01/03 10:14:49;;;;;;;;;;;;;;;11.42;97.67;101626.00;7354071;19;19942;-67
2023/01/03 10:17:26;;;;;;;;;;;;;;;11.41;98.17;101625.16;7353891;19;20283;-68
2023/01/03 10:20:02;;;;;;;;;;;;;;;11.43;97.79;101627.63;7356017;19;19947;-68
2023/01/03 10:22:30;;;;;;;;;;;;;;;11.45;98.28;101621.28;7349863;19;20310;-67
2023/01/03 10:25:10;;;;;;;;;;;;;;;11.47;98.45;101629.88;7354090;19;20411;-67
2023/01/03 10:27:42;;;;;;;;;;;;;;;11.46;98.32;101622.13;7353703;19;20321;-67
2023/01/03 10:30:13;;;;;;;;;;;;;;;11.42;98.36;101626.84;7353766;19;19938;-68
2023/01/03 10:32:41;;;;;;;;;;;;;;;11.43;98.42;101622.38;7354532;19;20355;-68
2023/01/03 10:35:11;;;;;;;;;;;;;;;11.43;98.84;101623.22;7350448;19;19934;-68
2023/01/03 10:37:39;;;;;;;;;;;;;;;11.42;99.04;101611.03;7352762;19;19987;-67
2023/01/03 10:40:06;;;;;;;;;;;;;;;11.47;99.42;101614.06;7352664;19;19949;-68
2023/01/03 10:42:35;;;;;;;;;;;;;;;11.50;99.60;101612.94;7353921;19;19982;-68
2023/01/03 10:45:04;;;;;;;;;;;;;;;11.51;99.63;101606.72;7353526;19;20508;-67
2023/01/03 10:47:31;;;;;;;;;;;;;;;11.54;99.92;101609.06;7352983;19;19935;-67
2023/01/03 10:49:59;;;;;;;;;;;;;;;11.52;99.66;101606.59;7354472;19;19956;-67
2023/01/03 10:52:36;;;;;;;;;;;;;;;11.53;99.83;101607.38;7352773;19;19918;-67
2023/01/03 10:55:14;;;;;;;;;;;;;;;11.55;99.92;101602.81;7354557;19;19927;-69
2023/01/03 10:57:43;;;;;;;;;;;;;;;11.52;99.63;101598.69;7356370;19;20363;-67
2023/01/03 11:00:19;;;;;;;;;;;;;;;11.51;99.48;101589.09;7359975;19;20558;-67
2023/01/03 11:02:47;;;;;;;;;;;;;;;11.47;99.35;101594.78;7362645;19;20021;-67
2023/01/03 11:05:16;;;;;;;;;;;;;;;11.43;99.84;101588.13;7359094;19;19934;-67
2023/01/03 11:07:43;;;;;;;;;;;;;;;11.44;100.00;101584.50;7359577;19;20265;-68
2023/01/03 11:10:15;;;;;;;;;;;;;;;11.42;100.00;101587.31;7360788;19;20691;-67
2023/01/03 11:12:42;;;;;;;;;;;;;;;11.43;100.00;101572.31;7362700;19;19947;-67
2023/01/03 11:15:19;;;;;;;;;;;;;;;11.42;100.00;101566.22;7361959;19;19925;-67
2023/01/03 11:17:53;;;;;;;;;;;;;;;11.43;100.00;101569.66;7361784;19;19927;-68
2023/01/03 11:20:20;;;;;;;;;;;;;;;11.44;100.00;101555.53;7359188;19;20687;-68
2023/01/03 11:22:51;;;;;;;;;;;;;;;11.46;100.00;101553.59;7358106;19;19927;-67
2023/01/03 11:25:18;;;;;;;;;;;;;;;11.47;100.00;101560.53;7359126;19;20272;-68
2023/01/03 11:27:47;;;;;;;;;;;;;;;11.44;100.00;101545.81;7360672;19;19922;-67
2023/01/03 11:30:26;;;;;;;;;;;;;;;11.44;100.00;101545.00;7359745;19;19953;-67
2023/01/03 11:33:02;;;;;;;;;;;;;;;11.45;100.00;101542.22;7361759;19;19923;-68
2023/01/03 11:35:42;;;;;;;;;;;;;;;11.45;100.00;101536.94;7358470;19;19922;-68
2023/01/03 11:38:18;;;;;;;;;;;;;;;11.48;100.00;101530.56;7358474;19;19929;-67
2023/01/03 11:40:45;;;;;;;;;;;;;;;11.49;100.00;101524.31;7360840;19;19918;-67
2023/01/03 11:43:21;;;;;;;;;;;;;;;11.46;100.00;101519.34;7361746;19;20461;-67
2023/01/03 11:45:58;;;;;;;;;;;;;;;11.47;100.00;101519.22;7358643;19;20514;-67
2023/01/03 11:48:27;;;;;;;;;;;;;;;11.49;100.00;101517.25;7355718;19;19923;-67
2023/01/03 11:51:00;;;;;;;;;;;;;;;11.51;100.00;101504.78;7356609;19;20423;-68
2023/01/03 11:53:33;;;;;;;;;;;;;;;11.53;100.00;101502.81;7357890;19;20602;-66
2023/01/03 11:56:09;;;;;;;;;;;;;;;11.56;100.00;101496.44;7358577;19;19919;-68
2023/01/03 11:58:45;;;;;;;;;;;;;;;11.51;100.00;101488.13;7359912;19;19923;-68
2023/01/03 12:01:21;;;;;;;;;;;;;;;11.52;100.00;101482.72;7359232;19;19918;-67
2023/01/03 12:03:58;;;;;;;;;;;;;;;11.56;100.00;101478.81;7359852;19;20227;-67
2023/01/03 12:06:31;;;;;;;;;;;;;;;11.58;100.00;101471.59;7355785;19;19927;-68
2023/01/03 12:09:05;;;;;;;;;;;;;;;11.58;100.00;101476.84;7360378;19;19931;-67
2023/01/03 12:11:35;;;;;;;;;;;;;;;11.59;100.00;101467.13;7356892;19;19926;-67
2023/01/03 12:14:02;;;;;;;;;;;;;;;11.58;100.00;101473.38;7358794;19;19927;-67
2023/01/03 12:16:41;;;;;;;;;;;;;;;11.59;100.00;101465.34;7359940;19;19949;-67
2023/01/03 12:19:17;;;;;;;;;;;;;;;11.61;100.00;101467.84;7357629;19;19994;-67
2023/01/03 12:21:49;;;;;;;;;;;;;;;11.62;100.00;101461.59;7354221;19;20453;-67
2023/01/03 12:24:26;;;;;;;;;;;;;;;11.64;100.00;101461.44;7357230;19;20026;-67
2023/01/03 12:26:55;;;;;;;;;;;;;;;11.61;100.00;101459.94;7356467;19;19927;-68
2023/01/03 12:29:22;;;;;;;;;;;;;;;11.59;100.00;101454.78;7356180;19;19949;-68
2023/01/03 12:31:56;;;;;;;;;;;;;;;11.60;100.00;101455.63;7358725;19;20002;-66
2023/01/03 12:34:23;;;;;;;;;;;;;;;11.62;100.00;101435.25;7354904;19;20496;-67
2023/01/03 12:36:53;;;;;;;;;;;;;;;11.62;100.00;101443.16;7354819;19;19927;-67
2023/01/03 12:39:30;;;;;;;;;;;;;;;11.63;100.00;101436.06;7357010;19;19934;-66
2023/01/03 12:42:00;;;;;;;;;;;;;;;11.61;100.00;101438.00;7356011;19;19926;-68
2023/01/03 12:44:31;;;;;;;;;;;;;;;11.61;100.00;101440.66;7358922;19;19923;-67
2023/01/03 12:46:58;;;;;;;;;;;;;;;11.58;100.00;101420.66;7354998;19;19919;-68
2023/01/03 12:49:33;;;;;;;;;;;;;;;11.60;100.00;101424.00;7359432;19;20482;-67
2023/01/03 12:52:00;;;;;;;;;;;;;;;11.64;100.00;101419.25;7354108;19;19933;-67
2023/01/03 12:54:37;;;;;;;;;;;;;;;11.67;100.00;101419.81;7358034;19;19976;-67
2023/01/03 12:57:12;;;;;;;;;;;;;;;11.69;100.00;101423.13;7359325;19;20247;-67
2023/01/03 12:59:42;;;;;;;;;;;;;;;11.71;100.00;101423.81;7358869;19;19943;-67
2023/01/03 13:02:16;;;;;;;;;;;;;;;11.72;100.00;101411.47;7359531;19;19948;-67
2023/01/03 13:04:44;;;;;;;;;;;;;;;11.72;100.00;101414.13;7354665;19;19989;-67
2023/01/03 13:07:18;;;;;;;;;;;;;;;11.75;100.00;101416.47;7352037;19;20276;-67
2023/01/03 13:09:50;;;;;;;;;;;;;;;11.78;100.00;101403.84;7357915;19;19922;-67
2023/01/03 13:12:27;;;;;;;;;;;;;;;11.78;100.00;101403.84;7355148;19;19948;-67
2023/01/03 13:14:57;;;;;;;;;;;;;;;11.79;100.00;101408.13;7354986;19;20292;-67
2023/01/03 13:17:25;;;;;;;;;;;;;;;11.82;100.00;101407.03;7354089;19;20687;-68
2023/01/03 13:20:02;;;;;;;;;;;;;;;11.79;100.00;101405.50;7355655;19;20399;-67
2023/01/03 13:22:32;;;;;;;;;;;;;;;11.81;100.00;101411.47;7355258;19;20002;-67
2023/01/03 13:25:09;;;;;;;;;;;;;;;11.84;100.00;101403.25;7355756;19;19938;-67
2023/01/03 13:27:36;;;;;;;;;;;;;;;11.85;100.00;101393.53;7356715;19;19914;-67
2023/01/03 13:30:17;;;;;;;;;;;;;;;11.81;100.00;101390.38;7355471;19;19953;-67
2023/01/03 13:32:47;;;;;;;;;;;;;;;11.84;100.00;101390.06;7356280;19;19922;-67
2023/01/03 13:35:14;;;;;;;;;;;;;;;11.87;100.00;101389.78;7352831;19;19918;-67
2023/01/03 13:37:41;;;;;;;;;;;;;;;11.88;100.00;101377.44;7355462;19;21538;-67
2023/01/03 13:40:20;;;;;;;;;;;;;;;11.89;100.00;101368.53;7354733;19;19911;-68
2023/01/03 13:43:05;;;;;;;;;;;;;;;11.91;100.00;101363.94;7359503;19;19929;-67
2023/01/03 13:45:32;;;;;;;;;;;;;;;11.89;100.00;101358.81;7358933;19;20447;-66
2023/01/03 13:48:09;;;;;;;;;;;;;;;11.91;100.00;101356.03;7356983;19;20329;-67
2023/01/03 13:50:36;;;;;;;;;;;;;;;11.92;100.00;101353.25;7354956;19;19952;-67
2023/01/03 13:53:05;;;;;;;;;;;;;;;11.97;100.00;101347.53;7357103;19;19948;-66